Time;durP1;ratioP1;P1;durP2;ratioP2;P2;SDS_P1;SDS_P2;PMS_P1;PMS_P2;Temp;Humidity;BMP_temperature;BMP_pressure;BME280_temperature;BME280_humidity;BME280_pressure;Samples;Min_cycle;Max_cycle;Signal;HPM_P1;HPM_P2
2022/03/11 00:00:14;;;;;;;6.03;3.93;;;-1.50;79.30;;;;;;2065666;28;20187;-69
2022/03/11 00:01:16;;;;;;;7.15;3.83;;;-1.50;79.40;;;;;;2064909;28;20195;-69
2022/03/11 00:02:16;;;;;;;7.72;3.80;;;-1.50;79.40;;;;;;2065661;28;20190;-69
2022/03/11 00:03:19;;;;;;;6.30;4.10;;;-1.60;79.60;;;;;;2065519;28;20185;-69
2022/03/11 00:04:20;;;;;;;6.47;3.55;;;-1.60;80.50;;;;;;2065137;28;20298;-69
2022/03/11 00:05:20;;;;;;;6.03;3.37;;;-1.60;80.80;;;;;;2065190;28;20203;-69
2022/03/11 00:06:21;;;;;;;8.50;4.43;;;-1.60;80.80;;;;;;2073110;28;20311;-69
2022/03/11 00:07:22;;;;;;;5.77;3.47;;;-1.60;80.80;;;;;;2064963;28;20279;-69
2022/03/11 00:08:23;;;;;;;5.23;3.07;;;-1.60;80.70;;;;;;2065106;28;20188;-69
2022/03/11 00:09:23;;;;;;;6.77;3.90;;;-1.50;80.50;;;;;;2065703;28;20188;-69
2022/03/11 00:10:24;;;;;;;6.50;3.93;;;-1.60;80.50;;;;;;2065732;28;20186;-69
2022/03/11 00:11:25;;;;;;;6.60;3.33;;;-1.60;80.50;;;;;;2064901;28;20842;-69
2022/03/11 00:12:25;;;;;;;5.60;3.10;;;-1.60;80.50;;;;;;2065048;28;20195;-70
2022/03/11 00:13:26;;;;;;;5.03;3.50;;;-1.60;80.20;;;;;;2064969;28;20238;-69
2022/03/11 00:14:27;;;;;;;4.90;3.37;;;-1.60;80.30;;;;;;2065706;28;20231;-69
2022/03/11 00:15:27;;;;;;;6.27;3.27;;;-1.70;80.70;;;;;;2064958;28;20615;-69
2022/03/11 00:16:28;;;;;;;3.87;2.93;;;-1.70;81.30;;;;;;2065059;28;20189;-69
2022/03/11 00:17:29;;;;;;;7.93;3.47;;;-1.70;81.60;;;;;;2064707;28;20216;-69
2022/03/11 00:18:29;;;;;;;6.40;3.37;;;-1.70;81.40;;;;;;2065036;28;20687;-69
2022/03/11 00:19:30;;;;;;;6.70;3.83;;;-1.70;81.40;;;;;;2065528;28;20666;-69
2022/03/11 00:20:31;;;;;;;4.43;2.93;;;-1.70;81.20;;;;;;2065489;28;20589;-69
2022/03/11 00:21:32;;;;;;;4.93;3.45;;;-1.70;81.10;;;;;;2064578;28;20182;-69
2022/03/11 00:22:34;;;;;;;7.87;3.63;;;-1.70;81.00;;;;;;2064874;28;20206;-69
2022/03/11 00:23:35;;;;;;;6.47;3.83;;;-1.70;81.20;;;;;;2056872;28;20255;-69
2022/03/11 00:24:36;;;;;;;5.90;3.10;;;-1.70;81.20;;;;;;2048905;29;20195;-69
2022/03/11 00:25:37;;;;;;;6.43;3.60;;;-1.60;80.90;;;;;;2048644;29;20196;-69
2022/03/11 00:26:37;;;;;;;6.50;3.70;;;-1.60;80.80;;;;;;2056879;28;20845;-69
2022/03/11 00:27:38;;;;;;;6.70;3.63;;;-1.60;80.70;;;;;;2056695;28;20188;-69
2022/03/11 00:28:39;;;;;;;6.47;3.27;;;-1.60;80.80;;;;;;2056690;28;20187;-69
2022/03/11 00:29:39;;;;;;;6.67;4.27;;;-1.60;81.20;;;;;;2057323;28;20190;-69
2022/03/11 00:30:40;;;;;;;7.67;3.67;;;-1.60;81.00;;;;;;2056650;28;20182;-69
2022/03/11 00:31:41;;;;;;;5.37;3.43;;;-1.70;80.70;;;;;;2047937;28;20760;-69
2022/03/11 00:32:42;;;;;;;5.87;3.43;;;-1.70;80.70;;;;;;2048476;28;20814;-69
2022/03/11 00:33:43;;;;;;;6.97;3.70;;;-1.80;80.60;;;;;;2048705;29;20225;-69
2022/03/11 00:34:44;;;;;;;5.47;3.17;;;-1.80;80.70;;;;;;2048781;28;20425;-69
2022/03/11 00:35:44;;;;;;;6.43;3.80;;;-1.70;81.00;;;;;;2056798;28;20279;-69
2022/03/11 00:36:45;;;;;;;10.27;4.33;;;-1.70;80.60;;;;;;2057246;28;20236;-70
2022/03/11 00:37:46;;;;;;;5.60;3.50;;;-1.70;80.60;;;;;;2056794;28;20200;-69
2022/03/11 00:38:46;;;;;;;8.83;4.20;;;-1.70;80.60;;;;;;2056727;28;20568;-69
2022/03/11 00:39:47;;;;;;;8.67;3.77;;;-1.60;80.30;;;;;;2056690;28;20184;-69
2022/03/11 00:40:48;;;;;;;6.30;3.50;;;-1.70;81.40;;;;;;2048584;29;20259;-69
2022/03/11 00:41:49;;;;;;;6.00;3.77;;;-1.70;80.60;;;;;;2048238;29;20201;-69
2022/03/11 00:42:50;;;;;;;6.15;3.58;;;-1.70;80.90;;;;;;2056690;28;20184;-69
2022/03/11 00:43:51;;;;;;;9.77;4.00;;;-1.70;82.00;;;;;;2056815;28;20977;-70
2022/03/11 00:44:51;;;;;;;8.53;4.53;;;-1.70;81.00;;;;;;2048646;28;20271;-69
2022/03/11 00:45:53;;;;;;;6.37;3.53;;;-1.70;81.40;;;;;;2040665;29;20192;-69
2022/03/11 00:46:53;;;;;;;5.90;3.55;;;-1.70;81.70;;;;;;2048832;28;20243;-69
2022/03/11 00:47:54;;;;;;;8.17;4.00;;;-1.80;81.90;;;;;;2056501;28;20230;-69
2022/03/11 00:48:55;;;;;;;4.93;3.20;;;-1.80;82.30;;;;;;2048615;29;20181;-69
2022/03/11 00:49:56;;;;;;;7.17;3.80;;;-1.80;82.00;;;;;;2056760;28;20212;-69
2022/03/11 00:50:58;;;;;;;5.93;3.33;;;-1.80;82.30;;;;;;2064520;28;20228;-69
2022/03/11 00:51:59;;;;;;;6.65;3.78;;;-1.80;82.60;;;;;;2055896;28;20439;-69
2022/03/11 00:52:59;;;;;;;5.70;3.83;;;-1.80;82.50;;;;;;2056405;28;20666;-69
2022/03/11 00:54:00;;;;;;;5.90;3.40;;;-1.80;82.40;;;;;;2056684;28;20175;-69
2022/03/11 00:55:04;;;;;;;7.57;3.70;;;-1.80;82.50;;;;;;2048642;29;20183;-69
2022/03/11 00:56:05;;;;;;;6.60;4.15;;;-1.80;82.70;;;;;;2056668;28;20187;-69
2022/03/11 00:57:05;;;;;;;5.67;3.10;;;-1.90;82.80;;;;;;2064399;28;20193;-69
2022/03/11 00:58:06;;;;;;;6.10;3.53;;;-1.90;83.30;;;;;;2064576;28;20247;-69
2022/03/11 00:59:07;;;;;;;6.33;3.63;;;-1.90;83.40;;;;;;2057236;28;20673;-69
2022/03/11 01:00:09;;;;;;;5.40;3.30;;;-1.90;83.60;;;;;;2064419;28;20248;-69
2022/03/11 01:01:10;;;;;;;10.13;4.30;;;-1.90;83.60;;;;;;2055765;28;20180;-71
2022/03/11 01:02:11;;;;;;;9.50;3.77;;;-1.80;83.30;;;;;;2056375;28;20671;-69
2022/03/11 01:03:11;;;;;;;5.78;3.45;;;-1.80;83.20;;;;;;2056242;28;20183;-69
2022/03/11 01:04:12;;;;;;;8.00;4.10;;;-1.80;83.20;;;;;;2056248;28;20196;-69
2022/03/11 01:05:13;;;;;;;6.07;3.23;;;-1.80;83.00;;;;;;2056228;28;20186;-70
2022/03/11 01:06:13;;;;;;;7.23;3.77;;;-1.80;82.70;;;;;;2056288;28;20310;-69
2022/03/11 01:07:14;;;;;;;7.10;4.30;;;-1.80;82.60;;;;;;2064431;28;20188;-69
2022/03/11 01:08:15;;;;;;;6.37;3.63;;;-1.80;82.00;;;;;;2056318;28;20670;-69
2022/03/11 01:09:15;;;;;;;6.17;3.37;;;-1.80;81.60;;;;;;2056384;28;20580;-69
2022/03/11 01:10:17;;;;;;;8.60;3.63;;;-1.80;81.60;;;;;;2057035;28;20214;-69
2022/03/11 01:11:17;;;;;;;8.25;4.13;;;-1.70;81.30;;;;;;2055680;28;20270;-69
2022/03/11 01:12:18;;;;;;;5.43;3.53;;;-1.80;81.10;;;;;;2056309;28;20203;-69
2022/03/11 01:13:19;;;;;;;8.07;4.30;;;-1.80;81.30;;;;;;2057016;28;20231;-69
2022/03/11 01:14:19;;;;;;;8.63;3.43;;;-1.80;81.70;;;;;;2056792;28;20175;-69
2022/03/11 01:15:20;;;;;;;7.67;3.93;;;-1.90;81.60;;;;;;2057101;28;20185;-69
2022/03/11 01:16:23;;;;;;;5.97;3.50;;;-1.80;81.70;;;;;;2063387;28;20178;-69
2022/03/11 01:17:23;;;;;;;10.40;4.65;;;-1.90;82.30;;;;;;2065098;28;20183;-69
2022/03/11 01:18:24;;;;;;;7.90;4.00;;;-2.00;82.60;;;;;;2064942;28;20579;-69
2022/03/11 01:19:24;;;;;;;8.00;3.93;;;-2.00;82.90;;;;;;2064170;28;20643;-69
2022/03/11 01:20:25;;;;;;;8.53;4.03;;;-2.00;83.20;;;;;;2064267;28;20669;-69
2022/03/11 01:21:26;;;;;;;7.20;4.10;;;-1.90;83.20;;;;;;2071836;28;20596;-69
2022/03/11 01:22:26;;;;;;;6.27;3.57;;;-2.00;83.10;;;;;;2065071;28;20188;-69
2022/03/11 01:23:27;;;;;;;5.30;3.70;;;-2.00;83.60;;;;;;2064429;28;20182;-69
2022/03/11 01:24:28;;;;;;;8.20;4.30;;;-2.00;84.20;;;;;;2064171;28;20195;-69
2022/03/11 01:25:29;;;;;;;9.07;4.53;;;-2.00;84.60;;;;;;2072426;28;20176;-69
2022/03/11 01:26:29;;;;;;;9.20;4.00;;;-2.10;84.90;;;;;;2064952;28;20187;-69
2022/03/11 01:27:30;;;;;;;6.40;3.90;;;-2.10;85.50;;;;;;2072317;28;20585;-69
2022/03/11 01:28:31;;;;;;;8.80;4.10;;;-2.20;85.80;;;;;;2064193;28;20185;-69
2022/03/11 01:29:32;;;;;;;6.93;4.10;;;-2.20;86.10;;;;;;2063975;28;20871;-69
2022/03/11 01:30:32;;;;;;;8.30;3.87;;;-2.10;86.60;;;;;;2064716;28;20293;-69
2022/03/11 01:31:33;;;;;;;5.00;3.43;;;-2.10;86.30;;;;;;2064214;28;20539;-69
2022/03/11 01:32:34;;;;;;;5.80;3.67;;;-2.00;86.20;;;;;;2072197;28;20194;-69
2022/03/11 01:33:34;;;;;;;6.57;3.20;;;-2.00;86.10;;;;;;2072265;28;20205;-70
2022/03/11 01:34:35;;;;;;;8.13;4.10;;;-2.00;85.70;;;;;;2072221;28;20649;-69
2022/03/11 01:35:36;;;;;;;7.43;4.20;;;-2.10;85.60;;;;;;2064240;28;20210;-69
2022/03/11 01:36:37;;;;;;;5.90;3.27;;;-2.10;85.40;;;;;;2064210;28;20588;-69
2022/03/11 01:37:38;;;;;;;11.07;4.97;;;-2.10;85.50;;;;;;2064395;28;20182;-70
2022/03/11 01:38:40;;;;;;;6.57;3.87;;;-2.10;85.50;;;;;;2064792;28;20187;-69
2022/03/11 01:39:40;;;;;;;7.53;3.63;;;-2.10;85.20;;;;;;2072430;28;20191;-69
2022/03/11 01:40:41;;;;;;;5.37;3.37;;;-2.00;85.30;;;;;;2072149;28;20279;-69
2022/03/11 01:41:42;;;;;;;5.97;3.70;;;-2.00;84.90;;;;;;2063455;28;20204;-69
2022/03/11 01:42:42;;;;;;;8.17;4.30;;;-2.00;84.50;;;;;;2064285;28;20539;-69
2022/03/11 01:43:58;;;;;;;6.33;3.63;;;-2.00;84.20;;;;;;2064645;28;20703;-69
2022/03/11 01:44:58;;;;;;;6.72;3.45;;;-2.00;84.40;;;;;;2066602;28;20192;-69
2022/03/11 01:46:01;;;;;;;5.00;3.60;;;-2.00;84.50;;;;;;2072936;28;20591;-69
2022/03/11 01:47:02;;;;;;;5.95;3.92;;;-2.10;84.50;;;;;;2064748;28;20234;-69
2022/03/11 01:48:02;;;;;;;7.50;4.00;;;-2.10;85.00;;;;;;2064160;28;20256;-69
2022/03/11 01:49:07;;;;;;;6.23;3.80;;;-2.20;85.90;;;;;;2064022;28;20417;-69
2022/03/11 01:50:08;;;;;;;7.20;4.00;;;-2.10;86.30;;;;;;2064302;28;20602;-69
2022/03/11 01:51:09;;;;;;;7.78;4.22;;;-2.10;86.10;;;;;;2047290;28;20218;-69
2022/03/11 01:52:12;;;;;;;7.23;4.03;;;-2.10;86.00;;;;;;2055894;28;20287;-70
2022/03/11 01:53:13;;;;;;;8.73;3.95;;;-2.10;85.60;;;;;;2064293;28;20211;-69
2022/03/11 01:54:14;;;;;;;8.25;4.18;;;-2.10;85.80;;;;;;2072107;28;20196;-69
2022/03/11 01:55:15;;;;;;;6.70;4.23;;;-2.20;86.00;;;;;;2064516;28;20180;-69
2022/03/11 01:56:16;;;;;;;7.70;4.43;;;-2.20;86.10;;;;;;2064164;28;20175;-69
2022/03/11 01:57:17;;;;;;;5.20;3.42;;;-2.20;86.30;;;;;;2056091;28;20179;-69
2022/03/11 01:58:20;;;;;;;5.07;3.50;;;-2.20;86.60;;;;;;2056129;28;20191;-69
2022/03/11 01:59:21;;;;;;;8.88;4.30;;;-2.20;86.30;;;;;;2064415;28;20185;-69
2022/03/11 02:00:21;;;;;;;6.83;3.70;;;-2.20;86.30;;;;;;2072312;28;20892;-69
2022/03/11 02:01:23;;;;;;;7.93;4.03;;;-2.20;86.50;;;;;;2063436;28;20546;-69
2022/03/11 02:02:24;;;;;;;7.97;4.32;;;-2.30;86.80;;;;;;2048069;28;20196;-69
2022/03/11 02:03:25;;;;;;;6.67;3.83;;;-2.20;86.80;;;;;;2056074;28;20187;-73
2022/03/11 02:04:25;;;;;;;7.77;4.57;;;-2.30;86.50;;;;;;2072060;28;20182;-69
2022/03/11 02:05:28;;;;;;;10.30;4.60;;;-2.30;86.80;;;;;;2064789;28;20259;-69
2022/03/11 02:06:29;;;;;;;5.93;3.50;;;-2.30;87.30;;;;;;2071961;28;20186;-69
2022/03/11 02:07:30;;;;;;;7.53;4.35;;;-2.40;87.70;;;;;;2072092;28;20278;-69
2022/03/11 02:08:30;;;;;;;8.05;4.57;;;-2.30;88.10;;;;;;2063911;28;20178;-69
2022/03/11 02:09:31;;;;;;;7.70;4.20;;;-2.30;88.10;;;;;;2056086;28;20230;-69
2022/03/11 02:10:32;;;;;;;6.93;3.45;;;-2.40;88.50;;;;;;2063992;28;20183;-69
2022/03/11 02:11:33;;;;;;;6.57;4.00;;;-2.40;88.50;;;;;;2071644;28;20260;-69
2022/03/11 02:12:35;;;;;;;7.63;3.73;;;-2.40;88.70;;;;;;2064875;28;20219;-69
2022/03/11 02:14:07;;;;;;;7.82;4.20;;;-2.40;88.90;;;;;;2063902;28;20211;-70
2022/03/11 02:15:09;;;;;;;6.00;4.00;;;-2.40;88.90;;;;;;2064369;28;20158;-69
2022/03/11 02:16:20;;;;;;;6.75;4.10;;;-2.40;88.80;;;;;;2064519;28;20175;-69
2022/03/11 02:17:20;;;;;;;6.22;3.72;;;-2.30;88.50;;;;;;2064119;28;20166;-69
2022/03/11 02:18:21;;;;;;;5.50;3.37;;;-2.30;88.50;;;;;;2063851;28;20270;-69
2022/03/11 02:19:24;;;;;;;7.03;4.20;;;-2.30;88.10;;;;;;2072062;28;20187;-69
2022/03/11 02:20:25;;;;;;;7.15;3.83;;;-2.20;88.00;;;;;;2071815;28;20224;-69
2022/03/11 02:21:27;;;;;;;6.60;4.40;;;-2.30;87.60;;;;;;2071518;28;20190;-69
2022/03/11 02:22:34;;;;;;;5.75;4.00;;;-2.30;87.80;;;;;;2064113;28;20190;-69
2022/03/11 02:23:59;;;;;;;6.93;4.03;;;-2.40;88.40;;;;;;2063959;28;20185;-69
2022/03/11 02:25:00;;;;;;;6.78;3.83;;;-2.40;88.70;;;;;;2064061;28;20168;-69
2022/03/11 02:26:01;;;;;;;7.97;3.63;;;-2.40;89.00;;;;;;2064061;28;20224;-69
2022/03/11 02:27:02;;;;;;;8.50;4.47;;;-2.40;89.10;;;;;;2063976;28;20231;-69
2022/03/11 02:28:03;;;;;;;7.17;4.77;;;-2.40;89.50;;;;;;2064215;28;20197;-69
2022/03/11 02:29:05;;;;;;;5.33;3.53;;;-2.40;89.50;;;;;;2064613;28;20424;-70
2022/03/11 02:30:18;;;;;;;7.10;3.88;;;-2.40;89.50;;;;;;2064477;28;20417;-69
2022/03/11 02:31:27;;;;;;;6.47;3.70;;;-2.40;89.40;;;;;;2062500;28;20600;-69
2022/03/11 02:32:28;;;;;;;7.65;3.88;;;-2.40;89.20;;;;;;2064018;28;20198;-70
2022/03/11 02:33:28;;;;;;;7.90;4.07;;;-2.40;89.00;;;;;;2055760;28;20216;-69
2022/03/11 02:34:29;;;;;;;5.17;3.63;;;-2.40;88.70;;;;;;2055856;28;20194;-69
2022/03/11 02:35:30;;;;;;;7.70;4.33;;;-2.40;88.80;;;;;;2063882;28;20564;-69
2022/03/11 02:36:30;;;;;;;10.23;4.00;;;-2.40;88.70;;;;;;2064755;28;20183;-69
2022/03/11 02:37:31;;;;;;;8.37;4.07;;;-2.40;89.20;;;;;;2064466;28;20189;-69
2022/03/11 02:38:32;;;;;;;9.83;3.83;;;-2.40;88.90;;;;;;2064643;28;20591;-69
2022/03/11 02:39:33;;;;;;;6.32;3.22;;;-2.40;90.20;;;;;;2055724;28;20195;-69
2022/03/11 02:40:35;;;;;;;10.60;4.77;;;-2.40;89.20;;;;;;2055854;28;20179;-69
2022/03/11 02:41:37;;;;;;;6.35;3.53;;;-2.40;88.70;;;;;;2064974;28;20217;-69
2022/03/11 02:42:38;;;;;;;5.40;3.40;;;-2.40;88.60;;;;;;2065565;28;20209;-69
2022/03/11 02:43:41;;;;;;;6.23;3.67;;;-2.40;88.20;;;;;;2057550;28;20210;-69
2022/03/11 02:44:42;;;;;;;6.35;3.88;;;-2.40;88.40;;;;;;2057786;28;20180;-69
2022/03/11 02:45:43;;;;;;;6.27;3.60;;;-2.40;89.00;;;;;;2057654;28;20329;-69
2022/03/11 02:46:43;;;;;;;7.13;3.60;;;-2.40;89.00;;;;;;2065450;28;20269;-69
2022/03/11 02:47:44;;;;;;;6.30;3.67;;;-2.40;88.90;;;;;;2065187;28;20209;-69
2022/03/11 02:48:45;;;;;;;6.70;3.77;;;-2.50;88.60;;;;;;2057293;28;20194;-69
2022/03/11 02:49:45;;;;;;;7.53;4.13;;;-2.40;88.70;;;;;;2065412;28;20186;-69
2022/03/11 02:50:47;;;;;;;9.73;4.27;;;-2.40;88.30;;;;;;2065455;28;20190;-69
2022/03/11 02:51:47;;;;;;;8.52;4.00;;;-2.40;88.10;;;;;;2056645;28;20207;-69
2022/03/11 02:52:48;;;;;;;7.67;4.00;;;-2.40;88.40;;;;;;2065504;28;20230;-69
2022/03/11 02:53:49;;;;;;;5.47;3.57;;;-2.40;88.30;;;;;;2065976;28;20229;-69
2022/03/11 02:54:49;;;;;;;7.00;3.90;;;-2.40;88.40;;;;;;2065517;28;20623;-69
2022/03/11 02:55:50;;;;;;;7.13;4.43;;;-2.30;88.30;;;;;;2057208;28;20183;-69
2022/03/11 02:56:51;;;;;;;9.40;3.53;;;-2.30;88.10;;;;;;2049428;29;20191;-69
2022/03/11 02:57:51;;;;;;;6.77;3.97;;;-2.30;87.90;;;;;;2057281;28;20617;-69
2022/03/11 02:58:52;;;;;;;9.33;4.77;;;-2.30;87.70;;;;;;2065604;28;20178;-69
2022/03/11 02:59:53;;;;;;;8.43;3.90;;;-2.30;87.20;;;;;;2065263;28;20205;-69
2022/03/11 03:00:54;;;;;;;5.83;3.77;;;-2.30;87.20;;;;;;2066020;28;20184;-69
2022/03/11 03:01:54;;;;;;;7.73;4.13;;;-2.30;87.40;;;;;;2065143;28;20687;-69
2022/03/11 03:02:55;;;;;;;6.30;3.73;;;-2.30;87.30;;;;;;2065913;28;20179;-69
2022/03/11 03:03:56;;;;;;;5.30;3.33;;;-2.40;87.40;;;;;;2065441;28;20189;-69
2022/03/11 03:04:56;;;;;;;7.57;3.70;;;-2.40;88.00;;;;;;2065382;28;20172;-69
2022/03/11 03:05:57;;;;;;;6.77;3.50;;;-2.40;88.00;;;;;;2065197;28;20182;-69
2022/03/11 03:06:58;;;;;;;8.70;4.57;;;-2.30;87.90;;;;;;2065233;28;20175;-69
2022/03/11 03:07:58;;;;;;;7.33;3.73;;;-2.30;87.60;;;;;;2065905;28;20206;-69
2022/03/11 03:08:59;;;;;;;5.87;3.77;;;-2.30;87.50;;;;;;2065607;28;20171;-69
2022/03/11 03:10:00;;;;;;;6.10;3.83;;;-2.20;87.50;;;;;;2065273;28;20185;-69
2022/03/11 03:11:00;;;;;;;8.27;3.87;;;-2.20;87.50;;;;;;2057238;28;20204;-69
2022/03/11 03:12:01;;;;;;;5.73;3.90;;;-2.20;87.30;;;;;;2064641;28;20197;-70
2022/03/11 03:13:03;;;;;;;9.37;3.63;;;-2.30;86.80;;;;;;2065150;28;20187;-69
2022/03/11 03:14:03;;;;;;;5.88;3.65;;;-2.30;87.00;;;;;;2065266;28;20262;-69
2022/03/11 03:15:06;;;;;;;5.23;3.63;;;-2.30;87.10;;;;;;2065714;28;20323;-70
2022/03/11 03:16:07;;;;;;;6.70;4.00;;;-2.30;87.40;;;;;;2065949;28;20199;-69
2022/03/11 03:17:07;;;;;;;8.03;4.13;;;-2.50;87.10;;;;;;2073025;28;20200;-70
2022/03/11 03:18:09;;;;;;;7.70;4.10;;;-2.50;87.30;;;;;;2073449;28;20178;-69
2022/03/11 03:19:09;;;;;;;7.00;3.70;;;-2.60;88.00;;;;;;2065739;28;20254;-69
2022/03/11 03:20:11;;;;;;;7.77;3.87;;;-2.60;88.60;;;;;;2065269;28;20235;-69
2022/03/11 03:21:12;;;;;;;6.50;4.25;;;-2.70;88.80;;;;;;2064720;28;20188;-69
2022/03/11 03:22:13;;;;;;;7.57;4.03;;;-2.70;89.30;;;;;;2065065;28;20199;-69
2022/03/11 03:23:13;;;;;;;7.03;4.10;;;-2.70;89.60;;;;;;2065069;28;20675;-70
2022/03/11 03:24:14;;;;;;;8.07;4.67;;;-2.70;89.90;;;;;;2073333;28;20271;-69
2022/03/11 03:25:15;;;;;;;8.17;4.27;;;-2.70;89.90;;;;;;2065682;28;20190;-69
2022/03/11 03:26:16;;;;;;;6.17;3.70;;;-2.70;90.10;;;;;;2065227;28;20192;-69
2022/03/11 03:27:16;;;;;;;6.73;4.00;;;-2.60;90.10;;;;;;2065109;28;20179;-69
2022/03/11 03:28:17;;;;;;;6.40;3.97;;;-2.50;90.00;;;;;;2065704;28;20186;-69
2022/03/11 03:29:18;;;;;;;6.33;3.90;;;-2.50;89.70;;;;;;2065195;28;20891;-69
2022/03/11 03:30:19;;;;;;;6.27;4.03;;;-2.60;89.40;;;;;;2065319;28;20625;-69
2022/03/11 03:31:21;;;;;;;5.63;3.33;;;-2.60;89.80;;;;;;2064347;28;20178;-69
2022/03/11 03:32:22;;;;;;;7.45;4.13;;;-2.60;90.00;;;;;;2063888;28;20244;-70
2022/03/11 03:33:23;;;;;;;9.80;4.50;;;-2.60;90.10;;;;;;2065007;28;20361;-69
2022/03/11 03:34:35;;;;;;;7.63;3.87;;;-2.60;90.10;;;;;;2065718;28;20282;-69
2022/03/11 03:35:36;;;;;;;7.88;4.57;;;-2.60;89.80;;;;;;2065049;28;20337;-70
2022/03/11 03:36:37;;;;;;;9.37;4.60;;;-2.70;90.10;;;;;;2065134;28;20176;-67
2022/03/11 03:37:38;;;;;;;7.53;4.73;;;-2.70;90.10;;;;;;2065498;28;20193;-69
2022/03/11 03:38:39;;;;;;;7.57;4.68;;;-2.70;90.30;;;;;;2065660;28;20245;-69
2022/03/11 03:39:41;;;;;;;6.97;3.90;;;-2.80;90.50;;;;;;2064860;28;20191;-69
2022/03/11 03:40:41;;;;;;;8.00;4.45;;;-2.80;90.50;;;;;;2057312;28;20790;-69
2022/03/11 03:41:42;;;;;;;8.63;4.47;;;-2.80;90.70;;;;;;2064477;28;20207;-69
2022/03/11 03:42:47;;;;;;;8.47;4.63;;;-2.80;90.70;;;;;;2065102;28;20798;-69
2022/03/11 03:43:48;;;;;;;7.50;4.22;;;-2.80;90.90;;;;;;2064925;28;20924;-71
2022/03/11 03:44:48;;;;;;;8.60;4.67;;;-2.80;90.90;;;;;;2065220;28;20195;-69
2022/03/11 03:45:49;;;;;;;8.97;4.33;;;-2.80;91.00;;;;;;2064897;28;20200;-69
2022/03/11 03:46:50;;;;;;;6.20;3.80;;;-2.80;91.10;;;;;;2065062;28;20187;-72
2022/03/11 03:47:51;;;;;;;8.37;4.30;;;-2.90;91.10;;;;;;2065208;28;20187;-69
2022/03/11 03:48:51;;;;;;;6.83;4.20;;;-2.90;91.10;;;;;;2065976;28;20193;-69
2022/03/11 03:49:52;;;;;;;8.07;4.23;;;-2.90;91.10;;;;;;2065485;28;20209;-69
2022/03/11 03:50:52;;;;;;;8.50;5.03;;;-2.80;91.60;;;;;;2065545;28;20190;-70
2022/03/11 03:51:53;;;;;;;8.37;4.77;;;-2.90;90.90;;;;;;2063829;28;20202;-69
2022/03/11 03:52:54;;;;;;;5.07;3.47;;;-2.90;91.00;;;;;;2064673;28;20179;-69
2022/03/11 03:53:54;;;;;;;10.70;5.37;;;-2.90;91.10;;;;;;2065546;28;20638;-69
2022/03/11 03:54:55;;;;;;;5.73;3.80;;;-3.00;91.10;;;;;;2065604;28;20635;-69
2022/03/11 03:55:56;;;;;;;8.30;4.53;;;-3.00;91.10;;;;;;2065519;28;20691;-69
2022/03/11 03:56:56;;;;;;;7.67;4.07;;;-3.00;91.10;;;;;;2065462;28;20183;-69
2022/03/11 03:57:57;;;;;;;7.73;4.37;;;-3.00;91.20;;;;;;2065516;28;20230;-69
2022/03/11 03:58:58;;;;;;;7.90;4.60;;;-3.00;91.20;;;;;;2072782;28;20283;-69
2022/03/11 03:59:58;;;;;;;8.77;4.27;;;-3.00;91.50;;;;;;2072977;28;20178;-69
2022/03/11 04:00:59;;;;;;;8.83;4.50;;;-3.00;91.50;;;;;;2065387;28;20210;-69
2022/03/11 04:02:00;;;;;;;8.70;4.50;;;-3.00;91.60;;;;;;2064375;28;20692;-69
2022/03/11 04:03:00;;;;;;;8.60;4.60;;;-3.00;91.60;;;;;;2064854;28;20669;-70
2022/03/11 04:04:05;;;;;;;9.53;4.57;;;-3.00;91.60;;;;;;2065067;28;20179;-69
2022/03/11 04:05:06;;;;;;;7.22;3.90;;;-3.10;91.80;;;;;;2064784;28;20530;-69
2022/03/11 04:06:07;;;;;;;10.33;4.33;;;-3.10;91.90;;;;;;2064931;28;20187;-69
2022/03/11 04:07:07;;;;;;;9.67;5.37;;;-3.10;92.00;;;;;;2065387;28;20436;-70
2022/03/11 04:08:08;;;;;;;8.63;4.57;;;-3.10;91.90;;;;;;2064891;28;20702;-69
2022/03/11 04:09:09;;;;;;;9.88;4.60;;;-3.10;91.90;;;;;;2056883;28;20877;-69
2022/03/11 04:10:12;;;;;;;5.63;3.63;;;-3.00;91.90;;;;;;2056895;28;20190;-69
2022/03/11 04:11:13;;;;;;;6.53;4.13;;;-3.00;91.60;;;;;;2048202;28;20184;-69
2022/03/11 04:12:14;;;;;;;5.27;3.60;;;-3.10;91.70;;;;;;2056654;28;20896;-69
2022/03/11 04:13:14;;;;;;;9.37;4.10;;;-3.10;91.70;;;;;;2065311;28;20234;-70
2022/03/11 04:14:15;;;;;;;7.40;4.50;;;-3.10;91.60;;;;;;2072971;28;20182;-69
2022/03/11 04:15:16;;;;;;;7.07;3.97;;;-3.10;91.60;;;;;;2072823;28;20178;-69
2022/03/11 04:16:18;;;;;;;7.03;3.80;;;-3.10;91.70;;;;;;2072895;28;20574;-69
2022/03/11 04:17:19;;;;;;;7.07;4.53;;;-3.10;91.80;;;;;;2065201;28;20179;-69
2022/03/11 04:18:19;;;;;;;7.27;4.30;;;-3.20;91.90;;;;;;2065306;28;20186;-69
2022/03/11 04:19:20;;;;;;;7.03;4.47;;;-3.10;92.10;;;;;;2064685;28;20194;-70
2022/03/11 04:20:21;;;;;;;7.70;3.63;;;-3.10;92.20;;;;;;2064604;28;20182;-70
2022/03/11 04:21:22;;;;;;;9.30;4.70;;;-3.10;92.40;;;;;;2063802;28;20223;-69
2022/03/11 04:22:22;;;;;;;7.60;4.00;;;-3.20;92.40;;;;;;2064787;28;20191;-69
2022/03/11 04:23:23;;;;;;;7.87;4.30;;;-3.20;92.40;;;;;;2064689;28;20249;-70
2022/03/11 04:24:23;;;;;;;8.47;4.47;;;-3.20;92.50;;;;;;2056701;28;20188;-70
2022/03/11 04:25:25;;;;;;;7.53;4.97;;;-3.20;92.60;;;;;;2064568;28;20760;-70
2022/03/11 04:26:26;;;;;;;7.80;4.47;;;-3.20;92.70;;;;;;2064345;28;20569;-70
2022/03/11 04:27:26;;;;;;;9.70;5.33;;;-3.20;92.60;;;;;;2064458;28;20185;-69
2022/03/11 04:28:27;;;;;;;8.13;4.47;;;-3.20;92.60;;;;;;2065469;28;20187;-69
2022/03/11 04:29:28;;;;;;;6.47;4.03;;;-3.20;92.60;;;;;;2065210;28;20249;-69
2022/03/11 04:30:28;;;;;;;8.53;3.87;;;-3.20;92.60;;;;;;2065267;28;20197;-69
2022/03/11 04:31:29;;;;;;;8.17;3.80;;;-3.10;92.50;;;;;;2064491;28;20669;-70
2022/03/11 04:32:30;;;;;;;6.60;3.90;;;-3.10;92.50;;;;;;2065123;28;20190;-69
2022/03/11 04:33:31;;;;;;;8.10;3.70;;;-3.10;92.50;;;;;;2064460;28;20282;-69
2022/03/11 04:34:31;;;;;;;6.73;4.53;;;-3.00;92.10;;;;;;2064703;28;20186;-70
2022/03/11 04:35:32;;;;;;;7.77;4.27;;;-3.00;92.00;;;;;;2065259;28;20240;-70
2022/03/11 04:36:33;;;;;;;8.60;4.40;;;-3.00;92.00;;;;;;2064639;28;20211;-69
2022/03/11 04:37:34;;;;;;;8.65;4.30;;;-3.00;91.80;;;;;;2064726;28;20186;-69
2022/03/11 04:38:35;;;;;;;7.70;4.80;;;-3.00;91.50;;;;;;2064567;28;20603;-70
2022/03/11 04:39:35;;;;;;;5.50;4.07;;;-3.00;91.60;;;;;;2064601;28;20219;-69
2022/03/11 04:40:36;;;;;;;5.93;3.83;;;-3.00;91.50;;;;;;2064542;28;20282;-70
2022/03/11 04:41:36;;;;;;;10.63;4.80;;;-3.00;91.40;;;;;;2055948;28;20176;-69
2022/03/11 04:42:37;;;;;;;7.07;4.40;;;-3.00;91.50;;;;;;2064576;28;20701;-70
2022/03/11 04:43:38;;;;;;;7.07;3.97;;;-2.90;91.60;;;;;;2064596;28;20183;-69
2022/03/11 04:44:39;;;;;;;6.70;3.97;;;-2.90;91.50;;;;;;2064469;28;20592;-71
2022/03/11 04:45:40;;;;;;;8.27;4.53;;;-3.00;91.40;;;;;;2064721;28;20211;-70
2022/03/11 04:46:40;;;;;;;7.68;4.35;;;-3.00;91.50;;;;;;2064377;28;20183;-70
2022/03/11 04:47:41;;;;;;;7.87;4.40;;;-3.00;91.60;;;;;;2064598;28;20197;-69
2022/03/11 04:48:44;;;;;;;8.43;4.40;;;-3.10;91.80;;;;;;2064341;28;20222;-69
2022/03/11 04:49:45;;;;;;;7.68;4.63;;;-3.00;91.90;;;;;;2064617;28;20190;-69
2022/03/11 04:50:46;;;;;;;7.33;4.60;;;-3.10;92.40;;;;;;2072434;28;20661;-70
2022/03/11 04:51:46;;;;;;;8.07;5.00;;;-3.10;92.10;;;;;;2072054;28;20641;-69
2022/03/11 04:52:47;;;;;;;8.20;5.10;;;-3.10;92.20;;;;;;2065082;28;20191;-69
2022/03/11 04:53:50;;;;;;;9.37;5.03;;;-3.20;92.20;;;;;;2064433;28;20685;-70
2022/03/11 04:54:50;;;;;;;8.63;5.03;;;-3.20;92.40;;;;;;2056661;28;20215;-69
2022/03/11 04:55:51;;;;;;;8.07;4.33;;;-3.20;92.50;;;;;;2056655;28;20192;-69
2022/03/11 04:56:52;;;;;;;9.23;4.83;;;-3.20;92.70;;;;;;2064463;28;20225;-70
2022/03/11 04:57:52;;;;;;;10.90;4.63;;;-3.20;92.50;;;;;;2065086;28;20187;-69
2022/03/11 04:58:53;;;;;;;7.70;4.20;;;-3.20;92.50;;;;;;2072299;28;20196;-69
2022/03/11 04:59:54;;;;;;;7.20;3.83;;;-3.20;92.70;;;;;;2072690;28;20184;-69
2022/03/11 05:00:54;;;;;;;6.50;4.40;;;-3.20;92.80;;;;;;2064988;28;20181;-70
2022/03/11 05:01:55;;;;;;;7.53;4.53;;;-3.20;93.10;;;;;;2064449;28;20199;-69
2022/03/11 05:02:56;;;;;;;8.43;4.27;;;-3.20;93.30;;;;;;2064909;28;20201;-70
2022/03/11 05:03:56;;;;;;;7.27;4.23;;;-3.20;93.40;;;;;;2063632;28;20178;-69
2022/03/11 05:05:03;;;;;;;11.90;4.97;;;-3.20;93.50;;;;;;2064334;28;20294;-69
2022/03/11 05:06:05;;;;;;;7.28;4.15;;;-3.20;93.60;;;;;;2064457;28;20178;-70
2022/03/11 05:07:07;;;;;;;9.85;4.53;;;-3.20;93.60;;;;;;2064311;28;20174;-69
2022/03/11 05:08:08;;;;;;;9.60;4.30;;;-3.10;93.60;;;;;;2065059;28;20606;-70
2022/03/11 05:09:09;;;;;;;11.07;4.50;;;-3.10;93.30;;;;;;2064976;28;20241;-70
2022/03/11 05:10:14;;;;;;;8.23;4.40;;;-3.10;93.20;;;;;;2064020;28;20578;-69
2022/03/11 05:11:14;;;;;;;7.50;4.35;;;-3.00;92.90;;;;;;2056012;28;20192;-69
2022/03/11 05:12:15;;;;;;;11.43;3.97;;;-3.00;92.60;;;;;;2064519;28;20199;-70
2022/03/11 05:13:16;;;;;;;8.03;3.97;;;-3.10;92.50;;;;;;2064785;28;20206;-69
2022/03/11 05:14:17;;;;;;;6.78;3.83;;;-3.10;92.80;;;;;;2064361;28;20185;-69
2022/03/11 05:15:17;;;;;;;9.17;5.57;;;-3.00;92.70;;;;;;2064155;28;20187;-70
2022/03/11 05:16:18;;;;;;;8.63;4.80;;;-3.00;92.80;;;;;;2064393;28;20242;-70
2022/03/11 05:17:19;;;;;;;7.17;4.97;;;-3.00;92.70;;;;;;2064210;28;20178;-69
2022/03/11 05:18:20;;;;;;;8.55;4.93;;;-2.90;92.70;;;;;;2064944;28;20185;-70